createdAt,value
2023-02-11T00:00:16.881Z,213.24
2023-02-11T00:01:16.883Z,213.62
2023-02-11T00:02:17.360Z,214.59
2023-02-11T00:03:16.911Z,214.35
2023-02-11T00:04:16.894Z,214.52
2023-02-11T00:05:16.854Z,214.61
2023-02-11T00:06:16.854Z,212.06
2023-02-11T00:07:16.841Z,214.28
2023-02-11T00:08:16.877Z,212.18
2023-02-11T00:09:16.812Z,212.26
2023-02-11T00:10:16.813Z,209.80
2023-02-11T00:11:16.791Z,212.01
2023-02-11T00:12:16.845Z,211.88
2023-02-11T00:13:16.773Z,211.00
2023-02-11T00:14:16.767Z,206.28
2023-02-11T00:15:16.735Z,211.27
2023-02-11T00:16:16.764Z,208.21
2023-02-11T00:17:16.716Z,209.84
2023-02-11T00:18:16.726Z,208.03
2023-02-11T00:19:16.714Z,208.08
2023-02-11T00:20:16.695Z,208.43
2023-02-11T00:21:16.678Z,206.21
2023-02-11T00:22:16.647Z,207.82
2023-02-11T00:23:16.659Z,208.34
2023-02-11T00:24:16.625Z,208.86
2023-02-11T00:25:16.634Z,206.89
2023-02-11T00:26:16.601Z,207.37
2023-02-11T00:27:16.580Z,203.34
2023-02-11T00:28:16.747Z,206.84
2023-02-11T00:29:16.585Z,205.65
2023-02-11T00:30:16.567Z,202.49
2023-02-11T00:31:16.699Z,206.81
2023-02-11T00:32:16.533Z,204.45
2023-02-11T00:33:16.536Z,205.30
2023-02-11T00:34:16.519Z,204.02
2023-02-11T00:35:16.491Z,204.31
2023-02-11T00:36:16.472Z,204.25
2023-02-11T00:37:16.469Z,202.48
2023-02-11T00:38:16.474Z,203.93
2023-02-11T00:39:16.470Z,203.26
2023-02-11T00:40:16.456Z,201.41
2023-02-11T00:41:16.428Z,202.04
2023-02-11T00:42:16.431Z,202.16
2023-02-11T00:43:16.412Z,203.04
2023-02-11T00:44:16.400Z,201.77
2023-02-11T00:45:16.382Z,200.11
2023-02-11T00:46:16.466Z,201.71
2023-02-11T00:47:16.385Z,199.25
2023-02-11T00:48:16.367Z,201.11
2023-02-11T00:49:16.376Z,201.06
2023-02-11T00:50:16.364Z,199.70
2023-02-11T00:51:16.362Z,199.08
2023-02-11T00:52:16.334Z,195.08
2023-02-11T00:53:16.338Z,196.06
2023-02-11T00:54:16.392Z,199.37
2023-02-11T00:55:16.344Z,198.24
2023-02-11T00:56:16.278Z,199.07
2023-02-11T00:57:16.282Z,197.75
2023-02-11T00:58:16.283Z,195.34
2023-02-11T00:59:16.257Z,195.59
2023-02-11T01:00:16.231Z,198.57
2023-02-11T01:01:16.887Z,196.63
2023-02-11T01:02:16.215Z,197.56
2023-02-11T01:03:16.229Z,196.53
2023-02-11T01:04:16.192Z,189.42
2023-02-11T01:05:16.214Z,195.30
2023-02-11T01:06:16.198Z,193.96
2023-02-11T01:07:16.864Z,193.73
2023-02-11T01:08:16.144Z,194.16
2023-02-11T01:09:16.149Z,192.06
2023-02-11T01:10:16.135Z,193.89
2023-02-11T01:11:16.134Z,193.34
2023-02-11T01:12:16.119Z,189.58
2023-02-11T01:13:16.151Z,192.37
2023-02-11T01:14:16.087Z,193.84
2023-02-11T01:15:16.089Z,192.07
2023-02-11T01:16:16.147Z,191.75
2023-02-11T01:17:16.074Z,191.70
2023-02-11T01:18:16.082Z,191.64
2023-02-11T01:19:16.049Z,190.47
2023-02-11T01:20:16.028Z,189.50
2023-02-11T01:21:16.030Z,189.98
2023-02-11T01:22:15.996Z,190.26
2023-02-11T01:23:15.987Z,189.79
2023-02-11T01:24:16.016Z,189.88
2023-02-11T01:25:15.975Z,187.16
2023-02-11T01:26:15.970Z,185.61
2023-02-11T01:27:15.962Z,188.02
2023-02-11T01:28:15.976Z,188.97
2023-02-11T01:29:15.947Z,187.51
2023-02-11T01:30:15.920Z,188.12
2023-02-11T01:31:15.928Z,187.78
2023-02-11T01:32:15.938Z,189.11
2023-02-11T01:33:15.894Z,186.64
2023-02-11T01:34:15.885Z,186.36
2023-02-11T01:35:15.839Z,184.67
2023-02-11T01:36:15.831Z,184.88
2023-02-11T01:37:15.834Z,183.70
2023-02-11T01:38:15.832Z,185.57
2023-02-11T01:39:15.818Z,183.49
2023-02-11T01:40:15.814Z,184.98
2023-02-11T01:41:15.813Z,185.16
2023-02-11T01:42:15.769Z,184.78
2023-02-11T01:43:15.800Z,183.27
2023-02-11T01:44:15.773Z,182.94
2023-02-11T01:45:15.741Z,180.68
2023-02-11T01:46:15.745Z,183.51
2023-02-11T01:47:16.381Z,177.44
2023-02-11T01:48:15.705Z,180.11
2023-02-11T01:49:15.731Z,181.16
2023-02-11T01:50:15.677Z,182.86
2023-02-11T01:51:15.676Z,179.20
2023-02-11T01:52:15.656Z,180.59
2023-02-11T01:53:15.684Z,180.01
2023-02-11T01:54:15.701Z,178.72
2023-02-11T01:55:15.648Z,180.52
2023-02-11T01:56:15.636Z,180.34
2023-02-11T01:57:15.624Z,179.78
2023-02-11T01:58:15.624Z,178.67
2023-02-11T01:59:15.634Z,178.00
2023-02-11T02:00:15.632Z,178.36
2023-02-11T02:01:16.422Z,178.89
2023-02-11T02:02:15.593Z,177.54
2023-02-11T02:03:15.615Z,178.07
2023-02-11T02:04:15.569Z,178.53
2023-02-11T02:05:15.565Z,175.55
2023-02-11T02:06:15.568Z,176.91
2023-02-11T02:07:15.553Z,175.95
2023-02-11T02:08:15.534Z,175.72
2023-02-11T02:09:15.883Z,176.44
2023-02-11T02:10:15.527Z,175.64
2023-02-11T02:11:15.503Z,175.77
2023-02-11T02:12:15.502Z,175.86
2023-02-11T02:13:15.511Z,175.96
2023-02-11T02:14:15.473Z,175.16
2023-02-11T02:15:15.473Z,174.12
2023-02-11T02:16:15.521Z,174.26
2023-02-11T02:17:15.439Z,172.22
2023-02-11T02:18:15.432Z,173.40
2023-02-11T02:19:15.444Z,173.06
2023-02-11T02:20:15.467Z,172.84
2023-02-11T02:21:15.412Z,173.39
2023-02-11T02:22:15.400Z,171.79
2023-02-11T02:23:15.388Z,172.09
2023-02-11T02:24:15.377Z,169.82
2023-02-11T02:25:15.377Z,171.24
2023-02-11T02:26:15.344Z,172.50
2023-02-11T02:27:15.330Z,169.15
2023-02-11T02:28:15.367Z,171.03
2023-02-11T02:29:15.305Z,168.82
2023-02-11T02:30:15.345Z,170.63
2023-02-11T02:31:15.325Z,167.84
2023-02-11T02:32:15.349Z,166.98
2023-02-11T02:33:22.389Z,164.80
2023-02-11T02:34:16.257Z,147.65
2023-02-11T02:35:15.266Z,142.10
2023-02-11T02:36:15.241Z,145.02
2023-02-11T02:37:15.225Z,146.24
2023-02-11T02:38:15.227Z,148.97
2023-02-11T02:39:15.245Z,150.37
2023-02-11T02:40:15.214Z,146.12
2023-02-11T02:41:15.203Z,145.56
2023-02-11T02:42:15.209Z,144.26
2023-02-11T02:43:15.179Z,139.05
2023-02-11T02:44:15.875Z,125.96
2023-02-11T02:45:15.203Z,96.96
2023-02-11T02:46:15.202Z,98.78
2023-02-11T02:47:15.156Z,100.51
2023-02-11T02:48:15.170Z,109.27
2023-02-11T02:49:15.185Z,113.68
2023-02-11T02:50:15.141Z,116.13
2023-02-11T02:51:15.144Z,116.98
2023-02-11T02:52:15.126Z,113.84
2023-02-11T02:53:15.121Z,113.76
2023-02-11T02:54:15.132Z,97.07
2023-02-11T02:55:15.139Z,73.42
2023-02-11T02:56:15.094Z,54.76
2023-02-11T02:57:15.117Z,59.92
2023-02-11T02:58:15.090Z,52.45
2023-02-11T02:59:15.092Z,59.00
2023-02-11T03:00:15.061Z,54.24
2023-02-11T03:01:15.177Z,49.65
2023-02-11T03:02:15.056Z,47.66
2023-02-11T03:03:15.048Z,46.95
2023-02-11T03:04:15.055Z,46.75
2023-02-11T03:05:15.051Z,40.65
2023-02-11T03:06:15.038Z,34.11
2023-02-11T03:07:14.999Z,35.00
2023-02-11T03:08:15.010Z,24.43
2023-02-11T03:09:15.014Z,25.00
2023-02-11T03:10:15.007Z,35.03
2023-02-11T03:11:15.001Z,36.14
2023-02-11T03:12:14.974Z,26.26
2023-02-11T03:13:14.973Z,28.50
2023-02-11T03:14:14.981Z,29.13
2023-02-11T03:15:14.994Z,24.50
2023-02-11T03:16:14.983Z,28.95
2023-02-11T03:17:14.956Z,25.00
2023-02-11T03:18:14.937Z,27.52
2023-02-11T03:19:14.914Z,32.35
2023-02-11T03:20:14.941Z,31.06
2023-02-11T03:21:14.894Z,25.37
2023-02-11T03:22:14.886Z,23.36
2023-02-11T03:23:14.892Z,33.40
2023-02-11T03:24:14.898Z,27.48
2023-02-11T03:25:14.869Z,24.14
2023-02-11T03:26:14.888Z,26.40
2023-02-11T03:27:14.863Z,26.26
2023-02-11T03:28:14.890Z,27.92
2023-02-11T03:29:14.869Z,33.28
2023-02-11T03:30:14.844Z,25.66
2023-02-11T03:31:15.000Z,26.74
2023-02-11T03:32:14.896Z,25.37
2023-02-11T03:33:14.831Z,28.39
2023-02-11T03:34:14.837Z,30.15
2023-02-11T03:35:14.816Z,30.96
2023-02-11T03:36:14.838Z,35.44
2023-02-11T03:37:14.811Z,34.94
2023-02-11T03:38:14.839Z,27.36
2023-02-11T03:39:14.822Z,32.97
2023-02-11T03:40:14.809Z,31.24
2023-02-11T03:41:14.823Z,28.34
2023-02-11T03:42:14.792Z,25.35
2023-02-11T03:43:14.788Z,25.00
2023-02-11T03:44:14.764Z,29.23
2023-02-11T03:45:14.763Z,31.30
2023-02-11T03:46:14.844Z,29.04
2023-02-11T03:47:14.776Z,23.58
2023-02-11T03:48:14.758Z,25.17
2023-02-11T03:49:14.729Z,26.01
2023-02-11T03:50:14.782Z,22.89
2023-02-11T03:51:14.729Z,28.73
2023-02-11T03:52:14.707Z,30.13
2023-02-11T03:53:14.736Z,31.03
2023-02-11T03:54:14.754Z,38.69
2023-02-11T03:55:14.706Z,37.98
2023-02-11T03:56:14.735Z,40.65
2023-02-11T03:57:14.708Z,37.19
2023-02-11T03:58:14.681Z,41.12
2023-02-11T03:59:14.699Z,41.90
2023-02-11T04:00:14.722Z,41.83
2023-02-11T04:01:14.724Z,34.45
2023-02-11T04:02:14.702Z,31.31
2023-02-11T04:03:14.739Z,28.54
2023-02-11T04:04:14.653Z,25.00
2023-02-11T04:05:14.648Z,26.93
2023-02-11T04:06:14.673Z,25.08
2023-02-11T04:07:15.416Z,25.49
2023-02-11T04:08:14.654Z,35.24
2023-02-11T04:09:14.650Z,31.17
2023-02-11T04:10:14.657Z,25.00
2023-02-11T04:11:14.658Z,36.07
2023-02-11T04:12:14.642Z,34.92
2023-02-11T04:13:14.634Z,37.94
2023-02-11T04:14:14.635Z,35.58
2023-02-11T04:15:14.637Z,36.93
2023-02-11T04:16:14.644Z,42.62
2023-02-11T04:17:15.419Z,42.42
2023-02-11T04:19:14.611Z,42.67
2023-02-11T04:20:14.612Z,43.86
2023-02-11T04:21:14.646Z,44.91
2023-02-11T04:22:14.640Z,38.96
2023-02-11T04:23:14.613Z,37.01
2023-02-11T04:24:14.611Z,39.57
2023-02-11T04:25:14.633Z,39.53
2023-02-11T04:26:14.612Z,42.17
2023-02-11T04:27:14.632Z,43.65
2023-02-11T04:28:14.666Z,50.37
2023-02-11T04:29:14.622Z,51.02
2023-02-11T04:31:14.688Z,52.46
2023-02-11T04:32:14.614Z,51.56
2023-02-11T04:33:15.419Z,52.32
2023-02-11T04:34:14.611Z,53.76
2023-02-11T04:35:14.601Z,51.31
2023-02-11T04:36:14.645Z,49.33
2023-02-11T04:37:14.617Z,37.98
2023-02-11T04:38:14.600Z,37.23
2023-02-11T04:39:14.643Z,36.46
2023-02-11T04:40:14.607Z,30.08
2023-02-11T04:41:14.620Z,35.83
2023-02-11T04:42:14.605Z,34.87
2023-02-11T04:43:14.652Z,36.11
2023-02-11T04:44:14.616Z,40.25
2023-02-11T04:45:14.612Z,42.46
2023-02-11T04:46:14.685Z,46.15
2023-02-11T04:47:14.637Z,49.56
2023-02-11T04:48:14.619Z,51.58
2023-02-11T04:49:14.638Z,50.71
2023-02-11T04:50:14.640Z,51.94
2023-02-11T04:51:14.627Z,52.64
2023-02-11T04:52:14.677Z,52.84
2023-02-11T04:53:14.625Z,47.93
2023-02-11T04:54:14.656Z,45.69
2023-02-11T04:55:14.638Z,43.99
2023-02-11T04:56:14.668Z,47.84
2023-02-11T04:57:14.643Z,47.51
2023-02-11T04:58:14.649Z,49.83
2023-02-11T04:59:14.673Z,48.62
2023-02-11T05:00:14.640Z,44.45
2023-02-11T05:01:14.733Z,47.11
2023-02-11T05:02:14.656Z,47.71
2023-02-11T05:03:14.655Z,50.27
2023-02-11T05:04:14.804Z,48.32
2023-02-11T05:05:14.658Z,51.14
2023-02-11T05:06:14.686Z,52.63
2023-02-11T05:07:14.693Z,52.73
2023-02-11T05:08:14.660Z,52.39
2023-02-11T05:09:14.685Z,53.56
2023-02-11T05:10:14.663Z,52.34
2023-02-11T05:11:14.674Z,55.06
2023-02-11T05:12:14.679Z,49.54
2023-02-11T05:13:14.689Z,42.40
2023-02-11T05:14:14.688Z,47.44
2023-02-11T05:15:14.670Z,45.62
2023-02-11T05:16:14.685Z,47.01
2023-02-11T05:49:14.739Z,72.45
2023-02-11T05:51:14.753Z,80.64
2023-02-11T05:52:14.763Z,82.31
2023-02-11T05:53:14.768Z,84.51
2023-02-11T05:54:14.762Z,87.03
2023-02-11T05:55:14.744Z,89.36
2023-02-11T05:56:14.781Z,90.27
2023-02-11T05:57:14.740Z,92.33
2023-02-11T05:58:14.750Z,95.25
2023-02-11T05:59:14.755Z,92.06
2023-02-11T06:00:15.481Z,90.31
2023-02-11T06:01:14.774Z,88.04
2023-02-11T06:02:14.787Z,86.07
2023-02-11T06:03:14.801Z,86.17
2023-02-11T06:04:14.788Z,86.90
2023-02-11T06:05:14.781Z,82.69
2023-02-11T06:06:14.802Z,83.68
2023-02-11T06:07:14.790Z,88.36
2023-02-11T06:08:14.807Z,89.15
2023-02-11T06:09:14.782Z,92.33
2023-02-11T06:10:14.789Z,95.20
2023-02-11T06:11:14.791Z,99.05
2023-02-11T06:12:14.796Z,99.26
2023-02-11T06:13:14.795Z,101.29
2023-02-11T06:14:14.794Z,101.21
2023-02-11T06:15:14.805Z,94.76
2023-02-11T06:16:14.860Z,95.39
2023-02-11T06:17:15.834Z,95.45
2023-02-11T06:18:14.806Z,94.60
2023-02-11T06:19:14.806Z,89.55
2023-02-11T06:20:14.794Z,91.21
2023-02-11T06:21:14.793Z,85.72
2023-02-11T06:22:14.812Z,83.36
2023-02-11T06:23:14.809Z,78.57
2023-02-11T06:24:17.443Z,75.79
2023-02-11T06:25:14.966Z,75.97
2023-02-11T06:26:14.939Z,76.58
2023-02-11T06:27:14.921Z,78.32
2023-02-11T06:28:15.022Z,81.65
2023-02-11T06:29:14.926Z,85.86
2023-02-11T06:30:14.974Z,87.63
2023-02-11T06:31:15.045Z,90.10
2023-02-11T06:32:36.866Z,91.64
2023-02-11T06:34:14.943Z,92.25
2023-02-11T06:35:15.001Z,93.59
2023-02-11T06:36:14.944Z,95.39
2023-02-11T06:37:14.944Z,97.42
2023-02-11T06:38:14.956Z,97.96
2023-02-11T06:39:14.940Z,99.14
2023-02-11T06:40:14.945Z,97.37
2023-02-11T06:41:14.922Z,97.85
2023-02-11T06:42:14.920Z,98.45
2023-02-11T06:43:14.930Z,92.53
2023-02-11T06:44:14.920Z,92.76
2023-02-11T06:45:14.990Z,91.50
2023-02-11T06:46:14.980Z,92.85
2023-02-11T06:47:14.920Z,91.10
2023-02-11T06:48:14.924Z,93.38
2023-02-11T06:49:14.940Z,91.43
2023-02-11T06:50:14.984Z,89.47
2023-02-11T06:51:14.944Z,91.51
2023-02-11T06:52:14.967Z,91.52
2023-02-11T06:53:14.947Z,90.47
2023-02-11T06:54:14.931Z,90.85
2023-02-11T06:55:14.978Z,93.42
2023-02-11T06:56:14.940Z,91.35
2023-02-11T06:57:14.935Z,95.86
2023-02-11T06:58:14.972Z,95.40
2023-02-11T06:59:14.943Z,99.21
2023-02-11T07:00:14.943Z,99.26
2023-02-11T07:01:14.968Z,99.34
2023-02-11T07:02:15.002Z,99.65
2023-02-11T07:57:15.051Z,123.08
2023-02-11T07:59:15.071Z,123.69
2023-02-11T08:00:15.061Z,124.51
2023-02-11T08:01:15.161Z,124.54
2023-02-11T08:02:15.154Z,124.42
2023-02-11T08:03:15.067Z,123.95
2023-02-11T08:04:15.046Z,124.62
2023-02-11T08:05:15.120Z,123.43
2023-02-11T08:06:15.060Z,123.77
2023-02-11T08:07:15.058Z,123.43
2023-02-11T08:08:15.150Z,126.06
2023-02-11T08:09:15.065Z,123.92
2023-02-11T08:10:15.088Z,123.69
2023-02-11T08:47:15.205Z,132.38
2023-02-11T08:48:15.189Z,133.26
2023-02-11T08:49:15.206Z,132.89
2023-02-11T08:50:15.216Z,133.52
2023-02-11T08:51:15.241Z,133.60
2023-02-11T08:52:15.208Z,133.73
2023-02-11T08:53:15.230Z,134.41
2023-02-11T08:54:15.226Z,134.97
2023-02-11T08:55:15.224Z,133.96
2023-02-11T08:56:15.226Z,135.39
2023-02-11T08:57:15.229Z,133.67
2023-02-11T08:58:16.987Z,134.49
2023-02-11T08:59:15.291Z,134.56
2023-02-11T09:00:15.262Z,134.83
2023-02-11T09:01:15.274Z,135.02
2023-02-11T09:02:15.378Z,134.70
2023-02-11T09:03:15.238Z,136.80
2023-02-11T09:04:16.020Z,135.51
2023-02-11T09:05:15.290Z,135.88
2023-02-11T09:06:15.264Z,137.81
2023-02-11T09:07:15.271Z,137.82
2023-02-11T09:08:15.273Z,137.67
2023-02-11T09:09:15.287Z,137.47
2023-02-11T09:10:16.133Z,137.54
2023-02-11T09:11:15.306Z,138.55
2023-02-11T09:12:15.285Z,138.45
2023-02-11T09:13:15.282Z,138.62
2023-02-11T09:14:15.293Z,138.68
2023-02-11T09:15:15.280Z,139.70
2023-02-11T09:16:15.298Z,139.64
2023-02-11T09:17:15.276Z,141.31
2023-02-11T09:18:15.311Z,140.09
2023-02-11T09:19:15.319Z,140.25
2023-02-11T09:20:15.284Z,141.29
2023-02-11T09:21:15.267Z,141.69
2023-02-11T09:22:15.288Z,141.08
2023-02-11T09:23:17.612Z,140.78
2023-02-11T09:24:15.373Z,140.84
2023-02-11T09:25:15.275Z,141.15
2023-02-11T09:26:15.307Z,141.37
2023-02-11T09:27:15.261Z,143.23
2023-02-11T09:28:15.385Z,142.39
2023-02-11T09:29:15.244Z,144.65
2023-02-11T09:30:15.279Z,144.33
2023-02-11T09:31:15.454Z,145.16
2023-02-11T09:32:15.407Z,144.46
2023-02-11T09:33:15.254Z,145.19
2023-02-11T09:34:15.276Z,145.11
2023-02-11T09:35:15.291Z,144.40
2023-02-11T09:36:15.252Z,144.45
2023-02-11T09:37:15.253Z,145.42
2023-02-11T09:38:15.259Z,145.41
2023-02-11T09:39:15.343Z,145.62
2023-02-11T09:40:15.281Z,145.17
2023-02-11T09:41:15.272Z,146.22
2023-02-11T09:42:15.251Z,147.42
2023-02-11T09:43:15.267Z,145.82
2023-02-11T09:44:15.256Z,146.18
2023-02-11T09:45:15.267Z,146.22
2023-02-11T09:46:15.327Z,148.50
2023-02-11T09:47:15.258Z,146.68
2023-02-11T09:48:15.254Z,147.29
2023-02-11T09:49:15.264Z,147.43
2023-02-11T09:50:15.274Z,147.60
2023-02-11T09:51:15.248Z,148.38
2023-02-11T09:52:15.252Z,147.68
2023-02-11T09:53:15.251Z,146.91
2023-02-11T09:54:15.254Z,147.71
2023-02-11T09:55:15.279Z,147.37
2023-02-11T09:56:15.274Z,148.98
2023-02-11T09:57:27.980Z,148.41
2023-02-11T09:58:15.325Z,148.59
2023-02-11T09:59:15.262Z,148.99
2023-02-11T10:00:15.263Z,149.18
2023-02-11T10:01:15.360Z,149.83
2023-02-11T10:02:15.252Z,149.63
2023-02-11T10:03:15.248Z,150.60
2023-02-11T10:04:15.314Z,152.29
2023-02-11T10:05:15.262Z,149.62
2023-02-11T10:06:15.241Z,149.85
2023-02-11T10:07:15.278Z,150.17
2023-02-11T10:08:16.940Z,151.03
2023-02-11T10:09:15.230Z,150.37
2023-02-11T10:10:15.251Z,150.51
2023-02-11T10:11:29.640Z,150.66
2023-02-11T10:12:16.230Z,150.49
2023-02-11T10:13:15.215Z,150.88
2023-02-11T10:14:15.217Z,151.37
2023-02-11T10:15:15.219Z,151.57
2023-02-11T10:16:15.280Z,153.42
2023-02-11T10:17:15.238Z,152.57
2023-02-11T10:18:15.211Z,152.37
2023-02-11T10:19:15.237Z,153.67
2023-02-11T10:20:16.909Z,153.01
2023-02-11T10:21:15.228Z,153.45
2023-02-11T10:22:15.226Z,151.35
2023-02-11T10:23:15.228Z,153.48
2023-02-11T10:24:15.222Z,153.85
2023-02-11T10:25:15.226Z,153.99
2023-02-11T10:26:15.258Z,152.95
2023-02-11T10:27:15.244Z,152.26
2023-02-11T10:28:15.236Z,154.36
2023-02-11T10:29:15.214Z,154.81
2023-02-11T10:30:15.217Z,153.81
2023-02-11T10:31:15.252Z,155.59
2023-02-11T10:32:15.240Z,153.72
2023-02-11T10:33:15.195Z,154.65
2023-02-11T10:34:15.197Z,154.23
2023-02-11T10:35:15.217Z,155.04
2023-02-11T10:36:15.196Z,155.29
2023-02-11T10:37:15.230Z,154.22
2023-02-11T10:38:15.221Z,154.82
2023-02-11T10:39:15.185Z,153.62
2023-02-11T10:40:15.210Z,155.63
2023-02-11T10:41:15.184Z,154.75
2023-02-11T10:42:15.606Z,155.09
2023-02-11T10:43:15.177Z,155.01
2023-02-11T10:44:15.179Z,156.69
2023-02-11T10:45:15.175Z,154.72
2023-02-11T10:46:15.179Z,155.73
2023-02-11T10:47:15.160Z,157.56
2023-02-11T10:48:16.477Z,156.13
2023-02-11T10:49:15.163Z,155.73
2023-02-11T10:50:15.158Z,156.32
2023-02-11T10:51:15.138Z,156.21
2023-02-11T10:52:15.139Z,156.33
2023-02-11T10:53:15.123Z,154.65
2023-02-11T10:54:15.133Z,158.27
2023-02-11T10:55:15.118Z,156.73
2023-02-11T10:56:15.120Z,157.17
2023-02-11T10:57:15.139Z,155.85
2023-02-11T10:58:15.100Z,156.80
2023-02-11T10:59:15.100Z,157.15
2023-02-11T11:00:15.086Z,157.05
2023-02-11T11:01:24.324Z,158.80
2023-02-11T11:02:16.133Z,158.87
2023-02-11T11:03:15.075Z,158.99
2023-02-11T11:04:15.116Z,158.91
2023-02-11T11:05:15.077Z,158.91
2023-02-11T11:06:15.074Z,158.19
2023-02-11T11:07:15.084Z,158.36
2023-02-11T11:08:15.051Z,158.40
2023-02-11T11:09:15.064Z,158.81
2023-02-11T11:10:15.053Z,156.67
2023-02-11T11:11:15.060Z,158.44
2023-02-11T11:12:15.037Z,157.82
2023-02-11T11:13:15.027Z,158.17
2023-02-11T11:14:15.041Z,158.77
2023-02-11T11:15:15.013Z,158.28
2023-02-11T11:16:15.073Z,158.65
2023-02-11T11:17:15.015Z,158.77
2023-02-11T11:18:21.858Z,158.95
2023-02-11T11:19:16.390Z,158.81
2023-02-11T11:20:14.987Z,158.99
2023-02-11T11:21:14.998Z,158.75
2023-02-11T11:22:14.994Z,159.27
2023-02-11T11:23:14.991Z,159.40
2023-02-11T11:24:14.968Z,159.61
2023-02-11T11:25:14.968Z,159.48
2023-02-11T11:26:14.963Z,158.61
2023-02-11T11:27:14.938Z,159.75
2023-02-11T11:28:15.051Z,159.98
2023-02-11T11:29:14.931Z,160.46
2023-02-11T11:30:14.950Z,161.21
2023-02-11T11:31:15.034Z,158.83
2023-02-11T11:32:14.917Z,158.91
2023-02-11T11:33:14.921Z,159.21
2023-02-11T11:34:14.918Z,159.05
2023-02-11T11:35:14.920Z,159.59
2023-02-11T11:36:14.884Z,160.40
2023-02-11T11:37:14.879Z,160.56
2023-02-11T11:38:14.883Z,161.49
2023-02-11T11:39:14.860Z,159.79
2023-02-11T11:40:14.868Z,160.94
2023-02-11T11:41:14.853Z,161.36
2023-02-11T11:42:14.826Z,160.26
2023-02-11T11:43:14.827Z,161.71
2023-02-11T11:44:14.822Z,161.85
2023-02-11T11:45:14.812Z,161.87
2023-02-11T11:46:14.844Z,162.26
2023-02-11T11:47:14.793Z,162.12
2023-02-11T11:48:14.794Z,162.04
2023-02-11T11:49:14.773Z,162.86
2023-02-11T11:50:14.769Z,163.08
2023-02-11T11:51:14.777Z,162.68
2023-02-11T11:52:14.773Z,161.84
2023-02-11T11:53:14.762Z,161.62
2023-02-11T11:54:14.748Z,163.84
2023-02-11T11:55:14.753Z,162.57
2023-02-11T11:56:14.740Z,163.43
2023-02-11T11:57:14.709Z,163.29
2023-02-11T11:58:14.701Z,163.43
2023-02-11T11:59:14.698Z,164.15
2023-02-11T12:00:14.802Z,164.42
2023-02-11T12:01:14.682Z,163.69
2023-02-11T12:02:14.717Z,163.21
2023-02-11T12:03:14.699Z,164.43
2023-02-11T12:04:14.684Z,162.86
2023-02-11T12:05:14.677Z,164.57
2023-02-11T12:06:14.648Z,165.00
2023-02-11T12:07:14.641Z,161.19
2023-02-11T12:08:14.652Z,165.02
2023-02-11T12:09:14.689Z,165.28
2023-02-11T12:10:14.644Z,165.28
2023-02-11T12:11:14.614Z,165.55
2023-02-11T12:12:14.593Z,164.76
2023-02-11T12:13:14.596Z,165.86
2023-02-11T12:14:14.603Z,164.75
2023-02-11T12:15:14.565Z,164.90
2023-02-11T12:16:14.679Z,164.92
2023-02-11T12:17:14.575Z,165.52
2023-02-11T12:18:14.560Z,165.84
2023-02-11T12:19:14.549Z,166.49
2023-02-11T12:20:14.620Z,165.33
2023-02-11T12:21:14.551Z,165.46
2023-02-11T12:22:14.518Z,164.82
2023-02-11T12:23:14.518Z,165.08
2023-02-11T12:24:17.217Z,163.92
2023-02-11T12:25:14.510Z,166.35
2023-02-11T12:26:14.473Z,166.45
2023-02-11T12:27:14.477Z,165.02
2023-02-11T12:28:14.539Z,165.84
2023-02-11T12:29:14.475Z,165.64
2023-02-11T12:30:14.498Z,166.11
2023-02-11T12:31:14.594Z,164.69
2023-02-11T12:32:14.556Z,165.55
2023-02-11T12:33:14.425Z,166.32
2023-02-11T12:34:14.417Z,164.19
2023-02-11T12:35:14.425Z,164.17
2023-02-11T12:36:14.401Z,166.25
2023-02-11T12:37:14.392Z,164.43
2023-02-11T12:38:14.400Z,164.38
2023-02-11T12:39:14.388Z,164.57
2023-02-11T12:40:14.374Z,164.77
2023-02-11T12:41:14.374Z,164.91
2023-02-11T12:42:14.348Z,165.10
2023-02-11T12:43:14.343Z,165.22
2023-02-11T12:44:14.354Z,164.05
2023-02-11T12:45:14.336Z,165.29
2023-02-11T12:46:14.380Z,164.46
2023-02-11T12:47:14.303Z,163.56
2023-02-11T12:48:14.286Z,163.65
2023-02-11T12:49:14.287Z,163.64
2023-02-11T12:50:14.283Z,165.09
2023-02-11T12:51:14.282Z,163.27
2023-02-11T12:52:14.276Z,163.46
2023-02-11T12:53:14.289Z,163.69
2023-02-11T12:54:14.257Z,164.89
2023-02-11T12:55:14.228Z,163.43
2023-02-11T12:56:14.227Z,162.67
2023-02-11T12:57:14.227Z,162.79
2023-02-11T12:58:14.221Z,162.89
2023-02-11T12:59:14.496Z,163.03
2023-02-11T13:00:14.204Z,163.38
2023-02-11T13:01:14.193Z,162.33
2023-02-11T13:02:14.234Z,162.27
2023-02-11T13:03:14.209Z,162.37
2023-02-11T13:04:14.140Z,162.35
2023-02-11T13:05:14.531Z,162.49
2023-02-11T13:06:14.144Z,162.30
2023-02-11T13:07:14.126Z,161.98
2023-02-11T13:08:14.125Z,161.72
2023-02-11T13:09:14.132Z,161.52
2023-02-11T13:10:14.094Z,162.10
2023-02-11T13:11:14.605Z,161.97
2023-02-11T13:12:14.081Z,162.56
2023-02-11T13:13:14.074Z,163.02
2023-02-11T13:14:14.062Z,162.30
2023-02-11T13:15:14.038Z,161.59
2023-02-11T13:16:14.076Z,162.05
2023-02-11T13:17:14.040Z,161.37
2023-02-11T13:18:14.046Z,161.45
2023-02-11T13:19:14.104Z,160.60
2023-02-11T13:20:14.014Z,161.96
2023-02-11T13:21:14.004Z,161.42
2023-02-11T13:22:14.001Z,162.25
2023-02-11T13:23:14.011Z,161.42
2023-02-11T13:24:14.032Z,160.11
2023-02-11T13:25:14.016Z,161.28
2023-02-11T13:26:13.977Z,162.14
2023-02-11T13:27:13.983Z,161.36
2023-02-11T13:28:14.019Z,161.08
2023-02-11T13:29:13.993Z,161.20
2023-02-11T13:30:13.953Z,160.92
2023-02-11T13:31:14.039Z,160.94
2023-02-11T13:32:14.023Z,161.06
2023-02-11T13:34:13.919Z,161.24
2023-02-11T13:35:13.945Z,161.08
2023-02-11T13:50:13.959Z,162.33
2023-02-11T14:21:14.131Z,167.64
2023-02-11T14:36:16.153Z,168.53
2023-02-11T15:04:14.149Z,168.49
2023-02-11T19:45:12.157Z,128.77
2023-02-11T19:46:12.156Z,127.52
2023-02-11T19:47:12.167Z,127.57
2023-02-11T19:48:12.124Z,128.52
2023-02-11T19:49:12.141Z,130.01
2023-02-11T19:50:12.113Z,128.83
2023-02-11T19:52:12.125Z,129.05
2023-02-11T19:53:12.131Z,129.79
2023-02-11T19:54:12.103Z,129.52
2023-02-11T19:55:12.106Z,129.40
2023-02-11T19:56:12.114Z,130.05
2023-02-11T19:57:12.131Z,130.68
2023-02-11T19:58:12.126Z,129.68
2023-02-11T19:59:12.105Z,131.00
2023-02-11T20:00:12.112Z,131.46
2023-02-11T20:01:12.167Z,130.72
2023-02-11T20:02:12.118Z,130.04
2023-02-11T20:03:12.131Z,130.16
2023-02-11T20:04:12.143Z,130.20
2023-02-11T20:05:12.130Z,130.38
2023-02-11T20:06:12.102Z,130.47
2023-02-11T20:07:12.091Z,130.71
2023-02-11T20:08:12.112Z,130.58
2023-02-11T20:09:12.113Z,131.64
2023-02-11T20:10:12.117Z,132.62
2023-02-11T20:11:12.109Z,132.36
2023-02-11T20:12:12.133Z,131.47
2023-02-11T20:13:12.118Z,131.79
2023-02-11T20:14:12.095Z,134.34
2023-02-11T20:15:12.126Z,133.83
2023-02-11T20:16:12.162Z,132.93
2023-02-11T20:17:12.154Z,133.77
2023-02-11T20:18:12.116Z,132.73
2023-02-11T20:19:12.121Z,133.59
2023-02-11T20:20:12.120Z,133.78
2023-02-11T20:21:12.141Z,133.95
2023-02-11T20:22:12.140Z,134.30
2023-02-11T20:23:12.145Z,133.86
2023-02-11T20:24:12.148Z,133.02
2023-02-11T20:25:12.804Z,135.44
2023-02-11T20:26:12.129Z,135.99
2023-02-11T20:27:12.154Z,134.79
2023-02-11T20:28:12.180Z,134.16
2023-02-11T20:29:12.160Z,135.15
2023-02-11T20:30:12.155Z,134.52
2023-02-11T20:31:12.203Z,133.98
2023-02-11T20:32:12.193Z,135.68
2023-02-11T20:33:12.138Z,135.36
2023-02-11T20:34:12.172Z,135.51
2023-02-11T20:35:12.130Z,134.76
2023-02-11T20:36:12.135Z,133.69
2023-02-11T20:37:12.130Z,135.11
2023-02-11T20:38:12.308Z,136.11
2023-02-11T20:39:12.129Z,134.53
2023-02-11T20:40:12.129Z,134.45
2023-02-11T20:41:12.120Z,135.85
2023-02-11T20:42:12.145Z,136.10
2023-02-11T20:43:12.141Z,135.91
2023-02-11T20:44:12.777Z,135.52
2023-02-11T20:45:12.139Z,135.00
2023-02-11T20:46:12.200Z,135.92
2023-02-11T20:47:12.136Z,134.86
2023-02-11T20:48:12.136Z,136.82
2023-02-11T20:49:12.134Z,137.23